createdAt,value
2018-11-29T00:00:45.837Z,97194.57
2018-11-29T00:03:14.162Z,97188.19
2018-11-29T00:05:42.490Z,97186.97
2018-11-29T00:08:10.801Z,97187.68
2018-11-29T00:10:39.101Z,97186.90
2018-11-29T00:13:07.433Z,97182.91
2018-11-29T00:15:35.791Z,97177.59
2018-11-29T00:18:04.282Z,97165.63
2018-11-29T00:20:33.092Z,97166.31
2018-11-29T00:23:01.434Z,97174.49
2018-11-29T00:25:29.738Z,97171.25
2018-11-29T00:27:58.064Z,97174.42
2018-11-29T00:30:26.397Z,97171.83
2018-11-29T00:32:55.410Z,97168.94
2018-11-29T00:35:23.758Z,97174.83
2018-11-29T00:37:52.074Z,97168.97
2018-11-29T00:40:23.241Z,97170.09
2018-11-29T00:42:51.738Z,97165.29
2018-11-29T00:45:22.676Z,97159.05
2018-11-29T00:47:51.217Z,97157.95
2018-11-29T00:50:20.050Z,97153.84
2018-11-29T00:52:49.047Z,97155.84
2018-11-29T00:55:21.058Z,97158.20
2018-11-29T00:57:49.379Z,97161.33
2018-11-29T01:00:18.703Z,97172.44
2018-11-29T01:02:47.014Z,97170.73
2018-11-29T01:05:15.352Z,97181.48
2018-11-29T01:07:43.707Z,97185.19
2018-11-29T01:10:16.463Z,97182.56
2018-11-29T01:12:45.217Z,97183.11
2018-11-29T01:15:16.264Z,97174.55
2018-11-29T01:17:45.237Z,97169.91
2018-11-29T01:20:14.420Z,97174.92
2018-11-29T01:22:42.758Z,97171.27
2018-11-29T01:25:11.989Z,97171.41
2018-11-29T01:27:40.588Z,97175.09
2018-11-29T01:30:13.661Z,97177.19
2018-11-29T01:32:41.941Z,97185.75
2018-11-29T01:35:11.205Z,97170.65
2018-11-29T01:37:39.521Z,97171.81
2018-11-29T01:40:16.959Z,97168.39
2018-11-29T01:42:50.204Z,97157.45
2018-11-29T01:45:18.522Z,97162.81
2018-11-29T01:47:46.854Z,97164.70
2018-11-29T01:50:15.229Z,97162.55
2018-11-29T01:52:43.541Z,97162.58
2018-11-29T01:55:11.877Z,97160.36
2018-11-29T01:57:40.278Z,97154.55
2018-11-29T02:00:12.621Z,97148.82
2018-11-29T02:02:40.978Z,97148.41
2018-11-29T02:05:10.402Z,97143.60
2018-11-29T02:07:38.729Z,97146.62
2018-11-29T02:10:14.090Z,97143.66
2018-11-29T02:12:42.414Z,97132.14
2018-11-29T02:15:10.768Z,97133.77
2018-11-29T02:17:39.103Z,97131.11
2018-11-29T02:20:09.945Z,97143.39
2018-11-29T02:22:38.390Z,97131.69
2018-11-29T02:25:07.380Z,97136.69
2018-11-29T02:27:36.006Z,97130.20
2018-11-29T02:30:04.857Z,97123.47
2018-11-29T02:32:33.192Z,97120.27
2018-11-29T02:35:01.490Z,97118.05
2018-11-29T02:37:29.796Z,97114.35
2018-11-29T02:39:58.133Z,97110.78
2018-11-29T02:42:26.461Z,97104.18
2018-11-29T02:44:55.198Z,97094.44
2018-11-29T02:47:23.697Z,97099.67
2018-11-29T02:49:52.678Z,97099.80
2018-11-29T02:52:21.185Z,97103.55
2018-11-29T02:54:49.495Z,97093.97
2018-11-29T02:57:18.290Z,97085.34
2018-11-29T02:59:46.594Z,97097.23
2018-11-29T03:02:15.109Z,97081.49
2018-11-29T03:04:43.568Z,97080.86
2018-11-29T03:07:12.053Z,97078.92
2018-11-29T03:09:40.558Z,97087.11
2018-11-29T03:12:09.549Z,97101.38
2018-11-29T03:14:37.886Z,97111.91
2018-11-29T03:17:06.358Z,97110.58
2018-11-29T03:19:34.681Z,97107.34
2018-11-29T03:22:03.014Z,97107.14
2018-11-29T03:24:31.332Z,97103.40
2018-11-29T03:26:59.613Z,97104.02
2018-11-29T03:29:27.969Z,97100.13
2018-11-29T03:31:56.260Z,97101.49
2018-11-29T03:34:24.573Z,97100.70
2018-11-29T03:36:52.874Z,97093.34
2018-11-29T03:39:21.187Z,97090.44
2018-11-29T03:41:50.293Z,97087.58
2018-11-29T03:44:18.632Z,97087.51
2018-11-29T03:46:46.929Z,97089.59
2018-11-29T03:49:15.229Z,97097.20
2018-11-29T03:51:43.532Z,97090.58
2018-11-29T03:54:11.875Z,97088.07
2018-11-29T03:56:40.182Z,97086.30
2018-11-29T03:59:08.509Z,97095.67
2018-11-29T04:01:36.810Z,97090.29
2018-11-29T04:04:05.189Z,97100.72
2018-11-29T04:06:33.513Z,97095.94
2018-11-29T04:09:01.865Z,97097.41
2018-11-29T04:11:30.161Z,97091.79
2018-11-29T04:13:58.486Z,97096.73
2018-11-29T04:16:26.802Z,97089.41
2018-11-29T04:18:55.131Z,97092.70
2018-11-29T04:21:23.513Z,97102.52
2018-11-29T04:23:51.819Z,97099.86
2018-11-29T04:26:20.178Z,97092.67
2018-11-29T04:28:48.489Z,97085.31
2018-11-29T04:31:16.829Z,97078.66
2018-11-29T04:33:45.155Z,97081.22
2018-11-29T04:36:14.540Z,97078.09
2018-11-29T04:38:42.877Z,97074.10
2018-11-29T04:41:11.213Z,97072.03
2018-11-29T04:43:39.773Z,97070.83
2018-11-29T04:47:14.433Z,97074.26
2018-11-29T04:49:43.333Z,97071.63
2018-11-29T04:52:11.865Z,97056.85
2018-11-29T04:54:40.229Z,97049.19
2018-11-29T04:57:08.605Z,97050.08
2018-11-29T04:59:36.929Z,97050.83
2018-11-29T05:02:05.878Z,97047.69
2018-11-29T05:04:34.204Z,97045.21
2018-11-29T05:07:02.525Z,97041.63
2018-11-29T05:09:30.870Z,97029.17
2018-11-29T05:11:59.236Z,97036.77
2018-11-29T05:14:27.545Z,97033.31
2018-11-29T05:16:55.933Z,97029.03
2018-11-29T05:19:24.240Z,97025.35
2018-11-29T05:21:52.577Z,97022.47
2018-11-29T05:24:20.884Z,97032.16
2018-11-29T05:26:49.210Z,97037.91
2018-11-29T05:29:17.522Z,97043.17
2018-11-29T05:31:45.854Z,97040.52
2018-11-29T05:34:14.153Z,97046.23
2018-11-29T05:36:42.510Z,97041.66
2018-11-29T05:39:10.793Z,97043.52
2018-11-29T05:41:39.116Z,97034.69
2018-11-29T05:44:07.849Z,97038.44
2018-11-29T05:46:36.173Z,97029.78
2018-11-29T05:49:04.868Z,97039.81
2018-11-29T05:51:33.182Z,97030.20
2018-11-29T05:54:01.482Z,97034.27
2018-11-29T05:56:29.822Z,97027.56
2018-11-29T05:58:58.121Z,97030.03
2018-11-29T06:01:35.250Z,97034.14
2018-11-29T06:04:03.585Z,97032.70
2018-11-29T06:06:32.698Z,97037.92
2018-11-29T06:09:01.015Z,97027.83
2018-11-29T06:11:29.314Z,97035.47
2018-11-29T06:13:57.647Z,97028.84
2018-11-29T06:16:25.937Z,97021.19
2018-11-29T06:18:54.229Z,97033.02
2018-11-29T06:21:22.545Z,97039.65
2018-11-29T06:23:50.849Z,97048.63
2018-11-29T06:26:19.173Z,97047.52
2018-11-29T06:28:47.521Z,97047.92
2018-11-29T06:31:15.827Z,97046.91
2018-11-29T06:33:44.141Z,97048.47
2018-11-29T06:36:12.475Z,97042.81
2018-11-29T06:38:40.825Z,97038.64
2018-11-29T06:41:09.135Z,97039.45
2018-11-29T06:43:37.450Z,97033.15
2018-11-29T06:46:06.178Z,97027.45
2018-11-29T06:48:34.562Z,97032.38
2018-11-29T06:51:03.021Z,97022.65
2018-11-29T06:53:36.805Z,97022.93
2018-11-29T06:56:05.609Z,97017.03
2018-11-29T06:58:33.917Z,97008.88
2018-11-29T07:01:02.222Z,97004.86
2018-11-29T07:03:30.533Z,96995.44
2018-11-29T07:05:58.843Z,97000.23
2018-11-29T07:08:27.153Z,96997.59
2018-11-29T07:10:55.461Z,96992.78
2018-11-29T07:13:23.769Z,96991.89
2018-11-29T07:15:52.071Z,96990.75
2018-11-29T07:18:20.398Z,96991.88
2018-11-29T07:20:59.808Z,96992.69
2018-11-29T07:23:28.125Z,97001.11
2018-11-29T07:25:56.473Z,96999.20
2018-11-29T07:28:24.814Z,97002.73
2018-11-29T07:30:53.133Z,96999.69
2018-11-29T07:33:21.454Z,97001.64
2018-11-29T07:35:49.773Z,97011.52
2018-11-29T07:38:18.085Z,97012.52
2018-11-29T07:40:46.394Z,97006.86
2018-11-29T07:43:14.725Z,97006.42
2018-11-29T07:45:43.422Z,97007.62
2018-11-29T07:48:11.802Z,97008.20
2018-11-29T07:50:40.399Z,97008.71
2018-11-29T07:53:08.894Z,97011.42
2018-11-29T07:55:37.358Z,97005.20
2018-11-29T07:58:06.349Z,97010.04
2018-11-29T08:00:34.722Z,97005.27
2018-11-29T08:03:03.334Z,96998.63
2018-11-29T08:05:31.665Z,96988.19
2018-11-29T08:07:59.978Z,96983.36
2018-11-29T08:10:28.793Z,96980.66
2018-11-29T08:12:57.230Z,96970.39
2018-11-29T08:15:25.585Z,96963.45
2018-11-29T08:17:54.257Z,96948.30
2018-11-29T08:20:23.189Z,96955.95
2018-11-29T08:22:51.690Z,96943.41
2018-11-29T08:25:20.177Z,96939.59
2018-11-29T08:27:49.158Z,96940.12
2018-11-29T08:30:17.653Z,96930.35
2018-11-29T08:32:46.112Z,96927.23
2018-11-29T08:35:15.648Z,96934.05
2018-11-29T08:37:45.009Z,96938.65
2018-11-29T08:40:16.605Z,96946.05
2018-11-29T08:42:44.900Z,96942.80
2018-11-29T08:45:13.262Z,96941.88
2018-11-29T08:47:41.554Z,96941.33
2018-11-29T08:50:13.222Z,96938.52
2018-11-29T08:52:42.288Z,96929.49
2018-11-29T08:55:12.721Z,96928.08
2018-11-29T08:57:41.015Z,96924.02
2018-11-29T09:00:14.595Z,96929.92
2018-11-29T09:02:42.965Z,96931.06
2018-11-29T09:05:12.025Z,96926.69
2018-11-29T09:07:40.401Z,96935.36
2018-11-29T09:10:10.099Z,96947.75
2018-11-29T09:12:38.430Z,96939.05
2018-11-29T09:15:08.754Z,96940.53
2018-11-29T09:17:37.102Z,96948.81
2018-11-29T09:20:07.858Z,96953.86
2018-11-29T09:22:36.163Z,96950.45
2018-11-29T09:25:05.309Z,96954.72
2018-11-29T09:27:33.634Z,96951.01
2018-11-29T09:30:01.925Z,96951.59
2018-11-29T09:32:30.935Z,96961.88
2018-11-29T09:34:59.269Z,96956.61
2018-11-29T09:37:27.569Z,96948.69
2018-11-29T09:39:55.866Z,96951.59
2018-11-29T09:42:24.188Z,96956.47
2018-11-29T09:44:52.493Z,96956.27
2018-11-29T09:47:20.825Z,96956.53
2018-11-29T09:49:49.572Z,96958.73
2018-11-29T09:52:18.533Z,96954.23
2018-11-29T09:54:47.014Z,96955.84
2018-11-29T09:57:15.385Z,96954.52
2018-11-29T09:59:43.977Z,96942.73
2018-11-29T10:02:12.474Z,96940.05
2018-11-29T10:04:40.789Z,96937.41
2018-11-29T10:07:09.434Z,96934.50
2018-11-29T10:09:37.898Z,96933.33
2018-11-29T10:12:06.405Z,96933.69
2018-11-29T10:14:34.694Z,96937.06
2018-11-29T10:17:03.037Z,96929.52
2018-11-29T10:19:31.361Z,96928.58
2018-11-29T10:21:59.705Z,96919.67
2018-11-29T10:24:28.007Z,96920.88
2018-11-29T10:26:56.325Z,96920.38
2018-11-29T10:29:24.618Z,96918.88
2018-11-29T10:31:53.030Z,96922.37
2018-11-29T10:34:21.346Z,96919.00
2018-11-29T10:36:49.666Z,96917.14
2018-11-29T10:39:17.986Z,96914.37
2018-11-29T10:41:46.319Z,96913.38
2018-11-29T10:44:14.629Z,96918.59
2018-11-29T10:46:43.077Z,96914.07
2018-11-29T10:49:11.561Z,96902.55
2018-11-29T10:51:40.196Z,96897.52
2018-11-29T10:54:08.523Z,96892.56
2018-11-29T10:56:37.022Z,96890.25
2018-11-29T10:59:05.702Z,96894.20
2018-11-29T11:01:38.181Z,96890.91
2018-11-29T11:04:06.583Z,96887.50
2018-11-29T11:06:35.515Z,96885.17
2018-11-29T11:09:04.146Z,96883.61
2018-11-29T11:11:32.473Z,96874.78
2018-11-29T11:14:00.971Z,96876.92
2018-11-29T11:16:29.469Z,96868.67
2018-11-29T11:18:57.954Z,96861.06
2018-11-29T11:21:26.277Z,96862.02
2018-11-29T11:23:59.366Z,96854.90
2018-11-29T11:26:22.981Z,96854.20
2018-11-29T11:28:51.357Z,96850.38
2018-11-29T11:31:19.838Z,96848.58
2018-11-29T11:33:48.177Z,96847.94
2018-11-29T11:36:16.801Z,96837.63
2018-11-29T11:38:45.136Z,96820.50
2018-11-29T11:41:13.769Z,96821.28
2018-11-29T11:43:42.282Z,96809.84
2018-11-29T11:46:10.742Z,96802.36
2018-11-29T11:48:39.227Z,96796.91
2018-11-29T11:51:07.566Z,96792.67
2018-11-29T11:53:35.929Z,96771.14
2018-11-29T11:56:04.749Z,96750.58
2018-11-29T11:58:33.064Z,96741.73
2018-11-29T12:01:01.645Z,96742.84
2018-11-29T12:03:30.118Z,96724.19
2018-11-29T12:05:58.429Z,96726.27
2018-11-29T12:08:26.790Z,96768.56
2018-11-29T12:10:55.541Z,96845.09
2018-11-29T12:13:25.973Z,96819.88
2018-11-29T12:15:55.206Z,96840.84
2018-11-29T12:18:23.537Z,96840.45
2018-11-29T12:20:52.038Z,96793.19
2018-11-29T12:24:50.174Z,96808.28
2018-11-29T12:27:18.563Z,96845.94
2018-11-29T12:29:46.946Z,96851.67
2018-11-29T12:32:15.256Z,96850.11
2018-11-29T12:34:43.603Z,96849.48
2018-11-29T12:37:11.894Z,96821.28
2018-11-29T12:39:40.211Z,96815.77
2018-11-29T12:42:08.513Z,96805.27
2018-11-29T12:44:36.845Z,96811.69
2018-11-29T12:47:05.229Z,96793.93
2018-11-29T12:49:33.542Z,96778.17
2018-11-29T12:52:01.883Z,96752.47
2018-11-29T12:54:30.381Z,96722.69
2018-11-29T12:56:58.853Z,96664.47
2018-11-29T12:59:27.341Z,96587.57
2018-11-29T13:01:55.650Z,96548.39
2018-11-29T13:04:24.821Z,96567.66
2018-11-29T13:06:53.281Z,96624.99
2018-11-29T13:09:21.596Z,96787.63
2018-11-29T13:11:50.237Z,96744.91
2018-11-29T13:14:18.851Z,96772.50
2018-11-29T13:16:47.064Z,96778.95
2018-11-29T13:19:15.377Z,96765.59
2018-11-29T13:21:44.174Z,96762.63
2018-11-29T13:24:12.485Z,96776.68
2018-11-29T13:26:40.813Z,96773.73
2018-11-29T13:29:09.137Z,96753.17
2018-11-29T13:31:37.437Z,96749.69
2018-11-29T13:34:05.846Z,96741.18
2018-11-29T13:36:34.231Z,96737.52
2018-11-29T13:39:02.554Z,96717.45
2018-11-29T13:41:30.882Z,96692.42
2018-11-29T13:43:59.222Z,96684.38
2018-11-29T13:46:27.538Z,96695.72
2018-11-29T13:48:55.830Z,96692.10
2018-11-29T13:51:24.166Z,96670.42
2018-11-29T13:53:52.894Z,96663.59
2018-11-29T13:56:21.406Z,96672.09
2018-11-29T13:58:49.869Z,96660.09
2018-11-29T14:01:18.358Z,96666.61
2018-11-29T14:03:46.822Z,96660.58
2018-11-29T14:06:15.333Z,96654.23
2018-11-29T14:08:43.793Z,96654.06
2018-11-29T14:11:12.127Z,96651.66
2018-11-29T14:13:40.748Z,96651.01
2018-11-29T14:16:09.254Z,96651.36
2018-11-29T14:18:37.555Z,96645.92
2018-11-29T14:21:06.737Z,96638.88
2018-11-29T14:23:35.197Z,96639.70
2018-11-29T14:26:03.713Z,96636.52
2018-11-29T14:28:32.038Z,96624.14
2018-11-29T14:31:00.681Z,96612.88
2018-11-29T14:33:29.124Z,96620.96
2018-11-29T14:35:57.621Z,96615.34
2018-11-29T14:38:26.077Z,96606.95
2018-11-29T14:40:54.610Z,96601.59
2018-11-29T14:43:24.607Z,96601.39
2018-11-29T14:45:52.926Z,96596.08
2018-11-29T14:48:21.245Z,96585.48
2018-11-29T14:50:49.578Z,96594.03
2018-11-29T14:53:17.879Z,96596.14
2018-11-29T14:55:46.177Z,96597.05
2018-11-29T14:58:19.516Z,96607.77
2018-11-29T15:00:43.097Z,96618.64
2018-11-29T15:03:14.938Z,96625.67
2018-11-29T15:05:43.549Z,96632.74
2018-11-29T15:08:11.905Z,96627.75
2018-11-29T15:10:40.202Z,96624.64
2018-11-29T15:13:09.454Z,96616.45
2018-11-29T15:15:37.858Z,96603.27
2018-11-29T15:18:07.058Z,96594.34
2018-11-29T15:20:42.578Z,96592.20
2018-11-29T15:23:11.790Z,96593.61
2018-11-29T15:25:40.103Z,96588.26
2018-11-29T15:28:08.421Z,96598.34
2018-11-29T15:30:36.766Z,96615.42
2018-11-29T15:33:05.174Z,96610.59
2018-11-29T15:35:33.470Z,96599.57
2018-11-29T15:38:01.819Z,96599.96
2018-11-29T15:40:30.149Z,96595.45
2018-11-29T15:42:58.510Z,96602.79
2018-11-29T15:45:27.405Z,96611.19
2018-11-29T15:47:55.766Z,96612.39
2018-11-29T15:50:24.101Z,96613.47
2018-11-29T15:52:52.796Z,96599.31
2018-11-29T15:55:22.893Z,96604.64
2018-11-29T15:57:51.961Z,96592.51
2018-11-29T16:00:21.352Z,96590.97
2018-11-29T16:02:50.149Z,96592.81
2018-11-29T16:05:18.535Z,96590.54
2018-11-29T16:07:46.899Z,96595.72
2018-11-29T16:10:16.318Z,96595.28
2018-11-29T16:12:45.022Z,96595.61
2018-11-29T16:15:14.586Z,96584.53
2018-11-29T16:17:43.169Z,96582.34
2018-11-29T16:20:20.197Z,96569.36
2018-11-29T16:22:49.465Z,96564.99
2018-11-29T16:25:17.801Z,96584.99
2018-11-29T16:27:46.146Z,96578.05
2018-11-29T16:30:22.400Z,96575.23
2018-11-29T16:32:50.837Z,96570.98
2018-11-29T16:35:19.184Z,96573.09
2018-11-29T16:37:47.526Z,96581.69
2018-11-29T16:40:15.877Z,96572.09
2018-11-29T16:42:44.208Z,96580.88
2018-11-29T16:45:13.589Z,96580.28
2018-11-29T16:47:42.285Z,96596.34
2018-11-29T16:50:11.826Z,96596.34
2018-11-29T16:52:40.192Z,96583.33
2018-11-29T16:55:09.607Z,96577.42
2018-11-29T16:57:38.813Z,96581.48
2018-11-29T17:00:11.985Z,96583.59
2018-11-29T17:02:41.366Z,96578.58
2018-11-29T17:05:11.347Z,96591.34
2018-11-29T17:07:39.667Z,96576.38
2018-11-29T17:10:12.128Z,96585.17
2018-11-29T17:12:40.581Z,96583.20
2018-11-29T17:15:16.131Z,96582.17
2018-11-29T17:17:44.474Z,96588.94
2018-11-29T17:20:14.826Z,96590.14
2018-11-29T17:22:44.410Z,96594.80
2018-11-29T17:25:13.213Z,96600.38
2018-11-29T17:27:41.542Z,96606.59
2018-11-29T17:30:18.402Z,96620.39
2018-11-29T17:32:47.337Z,96621.52
2018-11-29T17:35:15.717Z,96615.98
2018-11-29T17:37:44.114Z,96613.84
2018-11-29T17:40:13.580Z,96604.56
2018-11-29T17:42:41.939Z,96605.30
2018-11-29T17:45:11.501Z,96605.15
2018-11-29T17:47:39.885Z,96603.91
2018-11-29T17:50:12.489Z,96607.78
2018-11-29T17:52:40.895Z,96601.28
2018-11-29T17:55:09.606Z,96601.06
2018-11-29T17:57:39.199Z,96600.59
2018-11-29T18:00:15.629Z,96591.24
2018-11-29T18:02:44.878Z,96602.84
2018-11-29T18:05:13.822Z,96597.01
2018-11-29T18:07:42.513Z,96591.69
2018-11-29T18:10:12.930Z,96583.11
2018-11-29T18:12:41.310Z,96580.92
2018-11-29T18:15:12.192Z,96573.69
2018-11-29T18:17:40.976Z,96582.59
2018-11-29T18:20:10.871Z,96573.72
2018-11-29T18:22:39.228Z,96575.81
2018-11-29T18:25:10.233Z,96577.55
2018-11-29T18:27:38.518Z,96570.28
2018-11-29T18:30:12.026Z,96561.63
2018-11-29T18:32:41.272Z,96573.45
2018-11-29T18:35:11.390Z,96573.64
2018-11-29T18:37:39.905Z,96565.35
2018-11-29T18:40:12.477Z,96558.40
2018-11-29T18:42:41.370Z,96561.63
2018-11-29T18:45:13.580Z,96562.87
2018-11-29T18:47:42.469Z,96559.77
2018-11-29T18:50:19.602Z,96559.14
2018-11-29T18:52:48.926Z,96568.64
2018-11-29T18:55:17.476Z,96585.41
2018-11-29T18:57:45.874Z,96569.28
2018-11-29T19:00:30.037Z,96576.55
2018-11-29T19:02:58.954Z,96578.64
2018-11-29T19:05:27.279Z,96576.17
2018-11-29T19:07:55.639Z,96570.18
2018-11-29T19:10:23.960Z,96569.72
2018-11-29T19:12:58.721Z,96568.01
2018-11-29T19:15:27.061Z,96566.18
2018-11-29T19:17:55.401Z,96571.83
2018-11-29T19:20:23.725Z,96578.34
2018-11-29T19:22:52.072Z,96562.88
2018-11-29T19:25:20.729Z,96567.72
2018-11-29T19:27:49.081Z,96560.12
2018-11-29T19:30:26.105Z,96560.97
2018-11-29T19:32:59.432Z,96558.83
2018-11-29T19:35:27.678Z,96554.47
2018-11-29T19:37:56.035Z,96553.38
2018-11-29T19:40:24.461Z,96556.13
2018-11-29T19:42:52.782Z,96566.11
2018-11-29T19:45:21.120Z,96566.59
2018-11-29T19:47:49.452Z,96566.11
2018-11-29T19:50:18.977Z,96565.59
2018-11-29T19:52:50.890Z,96561.72
2018-11-29T19:55:20.666Z,96557.47
2018-11-29T19:57:49.037Z,96547.89
2018-11-29T20:00:17.350Z,96553.41
2018-11-29T20:02:46.573Z,96554.09
2018-11-29T20:05:14.949Z,96553.12
2018-11-29T20:07:43.604Z,96549.28
2018-11-29T20:10:14.355Z,96562.11
2018-11-29T20:12:43.137Z,96555.02
2018-11-29T20:15:19.748Z,96547.88
2018-11-29T20:17:48.567Z,96548.92
2018-11-29T20:20:17.173Z,96550.41
2018-11-29T20:22:46.736Z,96545.66
2018-11-29T20:25:16.933Z,96543.53
2018-11-29T20:27:45.401Z,96538.38
2018-11-29T20:30:15.601Z,96542.27
2018-11-29T20:32:44.050Z,96534.63
2018-11-29T20:35:12.942Z,96524.50
2018-11-29T20:37:41.843Z,96525.22
2018-11-29T20:40:13.570Z,96529.63
2018-11-29T20:42:42.321Z,96533.23
2018-11-29T20:45:13.357Z,96527.48
2018-11-29T20:47:42.133Z,96536.91
2018-11-29T20:50:14.854Z,96538.11
2018-11-29T20:52:42.393Z,96540.00
2018-11-29T20:55:13.566Z,96529.44
2018-11-29T20:57:42.087Z,96529.34
2018-11-29T21:00:13.709Z,96533.14
2018-11-29T21:02:42.157Z,96546.52
2018-11-29T21:05:12.102Z,96540.03
2018-11-29T21:07:40.808Z,96537.50
2018-11-29T21:10:13.018Z,96534.77
2018-11-29T21:12:41.385Z,96538.77
2018-11-29T21:15:09.760Z,96513.98
2018-11-29T21:17:38.083Z,96514.57
2018-11-29T21:20:08.909Z,96525.59
2018-11-29T21:22:37.270Z,96517.25
2018-11-29T21:25:07.823Z,96512.28
2018-11-29T21:27:36.137Z,96512.28
2018-11-29T21:30:05.978Z,96529.85
2018-11-29T21:32:34.281Z,96526.16
2018-11-29T21:35:02.613Z,96520.72
2018-11-29T21:37:30.931Z,96518.16
2018-11-29T21:39:59.277Z,96510.45
2018-11-29T21:42:27.591Z,96505.19
2018-11-29T21:44:55.926Z,96505.52
2018-11-29T21:47:24.281Z,96506.84
2018-11-29T21:49:52.650Z,96509.87
2018-11-29T21:52:21.267Z,96507.86
2018-11-29T21:54:49.630Z,96498.18
2018-11-29T21:57:17.953Z,96501.72
2018-11-29T21:59:46.289Z,96515.88
2018-11-29T22:02:14.618Z,96504.93
2018-11-29T22:04:42.940Z,96500.73
2018-11-29T22:07:11.260Z,96508.47
2018-11-29T22:09:39.593Z,96516.11
2018-11-29T22:12:07.934Z,96514.92
2018-11-29T22:14:36.262Z,96531.28
2018-11-29T22:17:04.601Z,96542.81
2018-11-29T22:19:32.932Z,96533.42
2018-11-29T22:22:01.239Z,96553.56
2018-11-29T22:24:29.565Z,96529.58
2018-11-29T22:26:57.870Z,96551.09
2018-11-29T22:29:26.214Z,96535.23
2018-11-29T22:31:54.761Z,96536.56
2018-11-29T22:34:24.690Z,96534.25
2018-11-29T22:36:53.449Z,96539.58
2018-11-29T22:39:21.753Z,96541.37
2018-11-29T22:41:50.224Z,96530.42
2018-11-29T22:44:18.721Z,96529.06
2018-11-29T22:46:47.045Z,96532.70
2018-11-29T22:49:15.406Z,96533.34
2018-11-29T22:51:43.757Z,96527.64
2018-11-29T22:54:12.058Z,96529.87
2018-11-29T22:56:40.636Z,96528.02
2018-11-29T22:59:08.946Z,96539.66
2018-11-29T23:01:37.590Z,96551.94
2018-11-29T23:04:06.089Z,96547.19
2018-11-29T23:06:34.557Z,96545.27
2018-11-29T23:09:02.937Z,96544.52
2018-11-29T23:11:31.534Z,96553.45
2018-11-29T23:13:59.978Z,96556.17
2018-11-29T23:16:28.485Z,96550.84
2018-11-29T23:18:56.941Z,96554.88
2018-11-29T23:21:25.454Z,96555.14
2018-11-29T23:23:53.921Z,96555.72
2018-11-29T23:26:22.429Z,96560.67
2018-11-29T23:28:50.890Z,96562.27
2018-11-29T23:31:19.238Z,96561.66
2018-11-29T23:33:47.880Z,96563.31
2018-11-29T23:36:16.338Z,96560.09
2018-11-29T23:38:44.653Z,96567.31
2018-11-29T23:41:13.013Z,96556.84
2018-11-29T23:43:41.349Z,96562.29
2018-11-29T23:46:09.797Z,96558.52
2018-11-29T23:48:38.109Z,96551.39
2018-11-29T23:51:06.913Z,96550.66
2018-11-29T23:53:35.706Z,96543.05
2018-11-29T23:56:04.197Z,96538.60
2018-11-29T23:58:32.665Z,96544.28
